Time;durP1;ratioP1;P1;durP2;ratioP2;P2;SDS_P1;SDS_P2;PMS_P1;PMS_P2;Temp;Humidity;BMP_temperature;BMP_pressure;BME280_temperature;BME280_humidity;BME280_pressure;Samples;Min_cycle;Max_cycle;Signal;HPM_P1;HPM_P2
2022/02/23 00:00:29;;;;;;;23.65;9.27;;;;;;;;;;4968663;28;20061;-63
2022/02/23 00:02:55;;;;;;;22.02;8.50;;;;;;;;;;4968513;28;20053;-63
2022/02/23 00:05:20;;;;;;;18.42;7.35;;;;;;;;;;4968690;28;20452;-62
2022/02/23 00:07:45;;;;;;;21.90;8.50;;;;;;;;;;4968417;28;20133;-63
2022/02/23 00:10:11;;;;;;;24.25;9.55;;;;;;;;;;4968828;28;20033;-63
2022/02/23 00:12:36;;;;;;;25.38;8.48;;;;;;;;;;4968916;28;20340;-63
2022/02/23 00:15:02;;;;;;;20.95;7.13;;;;;;;;;;4968807;28;20341;-62
2022/02/23 00:17:28;;;;;;;23.05;7.85;;;;;;;;;;4972118;28;20179;-62
2022/02/23 00:19:54;;;;;;;19.35;7.95;;;;;;;;;;4972508;28;20029;-63
2022/02/23 00:22:19;;;;;;;19.83;7.75;;;;;;;;;;4972437;28;20360;-63
2022/02/23 00:24:45;;;;;;;22.33;7.65;;;;;;;;;;4972151;28;20348;-63
2022/02/23 00:27:10;;;;;;;21.00;8.15;;;;;;;;;;4973663;28;20385;-63
2022/02/23 00:29:36;;;;;;;24.90;8.45;;;;;;;;;;4972221;28;20511;-62
2022/02/23 00:32:02;;;;;;;19.55;7.47;;;;;;;;;;4972620;28;20376;-63
2022/02/23 00:34:28;;;;;;;23.40;9.15;;;;;;;;;;4973176;28;20314;-63
2022/02/23 00:36:54;;;;;;;19.00;6.75;;;;;;;;;;4971727;28;20396;-63
2022/02/23 00:39:20;;;;;;;24.70;8.85;;;;;;;;;;4971576;28;20356;-62
2022/02/23 00:41:45;;;;;;;19.15;7.50;;;;;;;;;;4971576;28;20422;-62
2022/02/23 00:44:11;;;;;;;21.00;7.40;;;;;;;;;;4972694;28;20053;-63
2022/02/23 00:46:36;;;;;;;27.02;8.82;;;;;;;;;;4972212;28;20506;-62
2022/02/23 00:49:01;;;;;;;19.92;8.60;;;;;;;;;;4972232;28;20356;-63
2022/02/23 00:51:26;;;;;;;18.35;7.07;;;;;;;;;;4971032;28;20334;-63
2022/02/23 00:53:52;;;;;;;17.25;7.07;;;;;;;;;;4971833;28;20504;-62
2022/02/23 00:56:17;;;;;;;21.13;6.93;;;;;;;;;;4971205;28;20342;-63
2022/02/23 00:58:42;;;;;;;19.60;7.40;;;;;;;;;;4971475;28;20660;-63
2022/02/23 01:01:08;;;;;;;23.30;7.85;;;;;;;;;;4977222;28;20382;-63
2022/02/23 01:03:33;;;;;;;24.08;7.53;;;;;;;;;;4977151;28;20426;-62
2022/02/23 01:05:58;;;;;;;18.20;7.35;;;;;;;;;;4971915;28;20482;-63
2022/02/23 01:08:24;;;;;;;22.48;9.40;;;;;;;;;;4971574;28;20033;-63
2022/02/23 01:10:49;;;;;;;19.80;7.43;;;;;;;;;;4971491;28;20383;-63
2022/02/23 01:13:14;;;;;;;21.00;7.82;;;;;;;;;;4971390;28;20433;-63
2022/02/23 01:15:40;;;;;;;25.25;6.85;;;;;;;;;;4970926;28;20503;-63
2022/02/23 01:18:05;;;;;;;19.80;6.63;;;;;;;;;;4971273;28;20163;-63
2022/02/23 01:20:30;;;;;;;19.58;7.20;;;;;;;;;;4970763;28;20098;-63
2022/02/23 01:22:58;;;;;;;15.98;7.25;;;;;;;;;;4971270;28;20451;-63
2022/02/23 01:25:24;;;;;;;25.15;8.48;;;;;;;;;;4972098;28;20412;-63
2022/02/23 01:27:50;;;;;;;17.23;7.45;;;;;;;;;;4970498;28;20364;-63
2022/02/23 01:30:17;;;;;;;25.33;6.95;;;;;;;;;;4970680;28;20350;-63
2022/02/23 01:32:42;;;;;;;22.98;7.07;;;;;;;;;;4971496;28;20425;-63
2022/02/23 01:35:08;;;;;;;18.50;7.28;;;;;;;;;;4970885;28;20510;-63
2022/02/23 01:37:33;;;;;;;20.58;7.57;;;;;;;;;;4971038;28;20048;-62
2022/02/23 01:39:59;;;;;;;18.55;6.65;;;;;;;;;;4970637;28;20475;-63
2022/02/23 01:42:24;;;;;;;24.08;6.60;;;;;;;;;;4970423;28;20455;-63
2022/02/23 01:44:49;;;;;;;16.40;5.78;;;;;;;;;;4971086;28;20096;-62
2022/02/23 01:47:14;;;;;;;20.42;6.88;;;;;;;;;;4971827;28;20459;-63
2022/02/23 01:49:40;;;;;;;15.50;6.97;;;;;;;;;;4970781;28;20520;-63
2022/02/23 01:52:06;;;;;;;18.15;6.60;;;;;;;;;;4969699;28;20508;-63
2022/02/23 01:54:31;;;;;;;17.25;6.53;;;;;;;;;;4972001;28;20808;-64
2022/02/23 01:56:56;;;;;;;18.05;6.07;;;;;;;;;;4970343;28;20350;-63
2022/02/23 01:59:22;;;;;;;18.35;6.45;;;;;;;;;;4970667;28;20476;-63
2022/02/23 02:01:47;;;;;;;21.85;7.38;;;;;;;;;;4970434;28;20436;-63
2022/02/23 02:04:13;;;;;;;17.85;5.65;;;;;;;;;;4970160;28;20348;-62
2022/02/23 02:06:38;;;;;;;14.75;6.40;;;;;;;;;;4970921;28;20341;-63
2022/02/23 02:09:03;;;;;;;17.05;7.47;;;;;;;;;;4969868;28;20321;-62
2022/02/23 02:11:29;;;;;;;16.23;5.80;;;;;;;;;;4971074;28;20317;-63
2022/02/23 02:13:54;;;;;;;15.60;5.85;;;;;;;;;;4969576;28;20417;-64
2022/02/23 02:16:19;;;;;;;16.20;6.50;;;;;;;;;;4970949;28;20448;-63
2022/02/23 02:18:45;;;;;;;12.73;5.40;;;;;;;;;;4969854;28;20481;-63
2022/02/23 02:21:10;;;;;;;19.23;6.70;;;;;;;;;;4971811;28;20306;-62
2022/02/23 02:23:35;;;;;;;11.15;5.57;;;;;;;;;;4969622;28;20486;-63
2022/02/23 02:26:01;;;;;;;14.38;6.20;;;;;;;;;;4969630;28;20534;-62
2022/02/23 02:28:27;;;;;;;22.40;6.00;;;;;;;;;;4970271;28;20033;-63
2022/02/23 02:30:53;;;;;;;15.88;5.38;;;;;;;;;;4969965;28;20519;-63
2022/02/23 02:33:19;;;;;;;16.85;6.28;;;;;;;;;;4970364;28;20337;-63
2022/02/23 02:35:44;;;;;;;10.35;4.78;;;;;;;;;;4969923;28;20387;-63
2022/02/23 02:38:10;;;;;;;13.88;5.82;;;;;;;;;;4969950;28;20385;-63
2022/02/23 02:40:35;;;;;;;13.38;4.78;;;;;;;;;;4969663;28;20420;-63
2022/02/23 02:43:05;;;;;;;15.70;5.50;;;;;;;;;;4969549;28;20405;-63
2022/02/23 02:45:32;;;;;;;15.93;5.68;;;;;;;;;;4969400;28;20452;-62
2022/02/23 02:47:57;;;;;;;14.32;5.32;;;;;;;;;;4969298;28;20336;-63
2022/02/23 02:50:22;;;;;;;14.40;5.32;;;;;;;;;;4968891;28;20380;-62
2022/02/23 02:52:48;;;;;;;15.95;5.18;;;;;;;;;;4969171;28;20429;-63
2022/02/23 02:55:13;;;;;;;13.55;5.53;;;;;;;;;;4969910;28;20451;-64
2022/02/23 02:57:39;;;;;;;12.88;5.38;;;;;;;;;;4969137;28;20384;-63
2022/02/23 03:00:06;;;;;;;16.05;5.40;;;;;;;;;;4969185;28;20443;-62
2022/02/23 03:02:31;;;;;;;15.07;4.82;;;;;;;;;;4969352;28;20352;-63
2022/02/23 03:04:57;;;;;;;16.83;5.70;;;;;;;;;;4970873;28;20328;-62
2022/02/23 03:07:22;;;;;;;12.45;5.47;;;;;;;;;;4969588;28;20433;-62
2022/02/23 03:09:47;;;;;;;13.32;5.10;;;;;;;;;;4969129;28;20052;-62
2022/02/23 03:12:13;;;;;;;13.90;5.30;;;;;;;;;;4969372;28;20467;-62
2022/02/23 03:14:38;;;;;;;15.43;5.13;;;;;;;;;;4969365;28;20363;-63
2022/02/23 03:17:04;;;;;;;18.02;5.15;;;;;;;;;;4969208;28;20373;-62
2022/02/23 03:19:29;;;;;;;8.95;4.20;;;;;;;;;;4968780;28;20124;-63
2022/02/23 03:21:54;;;;;;;15.63;5.22;;;;;;;;;;4971243;28;20099;-63
2022/02/23 03:24:20;;;;;;;18.10;5.55;;;;;;;;;;4969577;28;20554;-62
2022/02/23 03:26:45;;;;;;;13.73;5.22;;;;;;;;;;4968853;28;20376;-63
2022/02/23 03:29:10;;;;;;;10.65;4.20;;;;;;;;;;4968894;28;20337;-62
2022/02/23 03:31:36;;;;;;;17.30;4.78;;;;;;;;;;4968984;28;20034;-68
2022/02/23 03:34:01;;;;;;;11.00;4.45;;;;;;;;;;4968970;28;20371;-62
2022/02/23 03:36:26;;;;;;;11.93;5.28;;;;;;;;;;4969057;28;20474;-62
2022/02/23 03:38:52;;;;;;;12.25;5.15;;;;;;;;;;4969800;28;20376;-63
2022/02/23 03:41:17;;;;;;;10.60;4.00;;;;;;;;;;4969242;28;20571;-63
2022/02/23 03:43:42;;;;;;;11.35;4.18;;;;;;;;;;4968746;28;20523;-63
2022/02/23 03:46:08;;;;;;;9.23;3.97;;;;;;;;;;4969168;28;20462;-63
2022/02/23 03:48:33;;;;;;;9.45;4.47;;;;;;;;;;4968707;28;20030;-62
2022/02/23 03:50:59;;;;;;;8.02;3.60;;;;;;;;;;4971046;28;20407;-63
2022/02/23 03:53:24;;;;;;;11.35;3.70;;;;;;;;;;4972286;28;20440;-63
2022/02/23 03:55:49;;;;;;;13.40;4.30;;;;;;;;;;4973152;28;20450;-66
2022/02/23 03:58:15;;;;;;;11.27;4.30;;;;;;;;;;4972715;28;20421;-62
2022/02/23 04:00:40;;;;;;;12.10;4.93;;;;;;;;;;4972462;28;20436;-62
2022/02/23 04:03:06;;;;;;;10.52;3.78;;;;;;;;;;4972671;28;20535;-62
2022/02/23 04:05:31;;;;;;;10.75;4.28;;;;;;;;;;4972545;28;20377;-62
2022/02/23 04:07:56;;;;;;;13.25;4.13;;;;;;;;;;4972572;28;20391;-62
2022/02/23 04:10:23;;;;;;;9.23;3.75;;;;;;;;;;4972024;28;20405;-62
2022/02/23 04:12:48;;;;;;;15.05;4.18;;;;;;;;;;4972115;28;20515;-63
2022/02/23 04:15:14;;;;;;;12.25;3.38;;;;;;;;;;4972291;28;20435;-62
2022/02/23 04:17:40;;;;;;;13.55;4.35;;;;;;;;;;4973101;28;20332;-62
2022/02/23 04:20:07;;;;;;;11.88;3.40;;;;;;;;;;4972732;28;20356;-63
2022/02/23 04:22:33;;;;;;;9.60;4.18;;;;;;;;;;4972466;28;20456;-62
2022/02/23 04:24:59;;;;;;;14.80;4.38;;;;;;;;;;4971978;28;20456;-63
2022/02/23 04:27:24;;;;;;;9.50;3.53;;;;;;;;;;4972934;28;20436;-62
2022/02/23 04:29:49;;;;;;;12.27;3.65;;;;;;;;;;4972922;28;20426;-63
2022/02/23 04:32:15;;;;;;;10.73;4.10;;;;;;;;;;4972005;28;20527;-63
2022/02/23 04:34:40;;;;;;;10.13;4.05;;;;;;;;;;4972012;28;20418;-63
2022/02/23 04:37:07;;;;;;;9.73;3.60;;;;;;;;;;4971780;28;20328;-62
2022/02/23 04:39:32;;;;;;;9.95;3.38;;;;;;;;;;4971600;28;20026;-64
2022/02/23 04:41:57;;;;;;;11.20;3.90;;;;;;;;;;4971826;28;20511;-62
2022/02/23 04:44:23;;;;;;;8.55;4.35;;;;;;;;;;4971861;28;20369;-64
2022/02/23 04:46:48;;;;;;;12.52;3.55;;;;;;;;;;4970883;28;20447;-62
2022/02/23 04:49:13;;;;;;;7.28;3.10;;;;;;;;;;4971669;28;20083;-62
2022/02/23 04:51:39;;;;;;;8.27;3.78;;;;;;;;;;4971173;28;20364;-62
2022/02/23 04:54:04;;;;;;;11.05;4.00;;;;;;;;;;4973155;28;20057;-62
2022/02/23 04:56:29;;;;;;;8.55;3.92;;;;;;;;;;4971172;28;20357;-62
2022/02/23 04:58:55;;;;;;;9.55;3.55;;;;;;;;;;4971688;28;20326;-61
2022/02/23 05:01:21;;;;;;;12.50;3.85;;;;;;;;;;4971326;28;20435;-61
2022/02/23 05:03:47;;;;;;;9.98;4.15;;;;;;;;;;4971906;28;20403;-63
2022/02/23 05:06:12;;;;;;;7.18;3.20;;;;;;;;;;4971139;28;20359;-63
2022/02/23 05:08:38;;;;;;;8.95;3.30;;;;;;;;;;4972206;28;20029;-61
2022/02/23 05:11:03;;;;;;;8.85;3.67;;;;;;;;;;4959430;28;20038;-62
2022/02/23 05:13:32;;;;;;;6.82;3.45;;;;;;;;;;4971869;28;20030;-62
2022/02/23 05:15:59;;;;;;;12.38;3.78;;;;;;;;;;4971996;28;20381;-62
2022/02/23 05:18:27;;;;;;;7.97;3.72;;;;;;;;;;4971429;28;20480;-62
2022/02/23 05:20:54;;;;;;;11.52;3.63;;;;;;;;;;4971661;28;20348;-62
2022/02/23 05:23:19;;;;;;;9.73;3.53;;;;;;;;;;4971117;28;20456;-62
2022/02/23 05:25:45;;;;;;;12.27;3.53;;;;;;;;;;4971049;28;20052;-62
2022/02/23 05:28:10;;;;;;;10.68;3.83;;;;;;;;;;4970435;28;20033;-62
2022/02/23 05:30:35;;;;;;;6.18;3.28;;;;;;;;;;4971097;28;20365;-63
2022/02/23 05:33:01;;;;;;;3.33;2.50;;;;;;;;;;4970837;28;20164;-62
2022/02/23 05:35:26;;;;;;;11.52;3.60;;;;;;;;;;4970932;28;20428;-65
2022/02/23 05:37:51;;;;;;;7.38;3.00;;;;;;;;;;4970729;28;20344;-61
2022/02/23 05:40:17;;;;;;;8.60;3.55;;;;;;;;;;4971928;28;20441;-61
2022/02/23 05:42:42;;;;;;;7.15;3.15;;;;;;;;;;4970489;28;20345;-62
2022/02/23 05:45:08;;;;;;;8.75;3.25;;;;;;;;;;4970951;28;20668;-61
2022/02/23 05:47:33;;;;;;;8.05;3.15;;;;;;;;;;4970387;28;20402;-62
2022/02/23 05:49:59;;;;;;;7.75;2.65;;;;;;;;;;4972075;28;20449;-62
2022/02/23 05:52:24;;;;;;;10.57;3.63;;;;;;;;;;4970095;28;20457;-61
2022/02/23 05:54:50;;;;;;;6.55;3.40;;;;;;;;;;4970782;28;20464;-61
2022/02/23 05:57:15;;;;;;;7.95;3.13;;;;;;;;;;4970251;28;20416;-62
2022/02/23 05:59:41;;;;;;;11.82;3.35;;;;;;;;;;4970791;28;20021;-61
2022/02/23 06:02:06;;;;;;;7.35;3.40;;;;;;;;;;4970002;28;20345;-61
2022/02/23 06:04:34;;;;;;;6.65;3.25;;;;;;;;;;4970915;28;20353;-63
2022/02/23 06:07:00;;;;;;;10.45;3.75;;;;;;;;;;4969968;28;20364;-62
2022/02/23 06:09:25;;;;;;;10.23;3.53;;;;;;;;;;4970174;28;20365;-61
2022/02/23 06:11:51;;;;;;;10.63;4.05;;;;;;;;;;4970668;28;20409;-61
2022/02/23 06:14:16;;;;;;;6.00;3.50;;;;;;;;;;4969979;28;20505;-62
2022/02/23 06:16:42;;;;;;;7.10;2.88;;;;;;;;;;4971027;28;20428;-62
2022/02/23 06:19:07;;;;;;;7.45;3.00;;;;;;;;;;4970400;28;20337;-62
2022/02/23 06:21:32;;;;;;;9.30;3.83;;;;;;;;;;4970411;28;20337;-62
2022/02/23 06:23:58;;;;;;;10.45;3.55;;;;;;;;;;4970033;28;20444;-62
2022/02/23 06:26:23;;;;;;;8.02;3.55;;;;;;;;;;4969649;28;20425;-63
2022/02/23 06:28:49;;;;;;;7.15;3.22;;;;;;;;;;4970553;28;20586;-61
2022/02/23 06:31:15;;;;;;;7.07;3.22;;;;;;;;;;4970674;28;20333;-61
2022/02/23 06:33:42;;;;;;;10.57;4.25;;;;;;;;;;4969654;28;20372;-62
2022/02/23 06:36:08;;;;;;;8.05;3.75;;;;;;;;;;4969637;28;20469;-62
2022/02/23 06:38:36;;;;;;;8.85;3.63;;;;;;;;;;4969293;28;20462;-61
2022/02/23 06:41:02;;;;;;;8.75;3.72;;;;;;;;;;4970027;28;20384;-61
2022/02/23 06:43:27;;;;;;;8.20;3.50;;;;;;;;;;4968314;28;20360;-61
2022/02/23 06:45:53;;;;;;;7.28;3.33;;;;;;;;;;4969729;28;20804;-62
2022/02/23 06:48:19;;;;;;;6.25;3.63;;;;;;;;;;4970329;28;20454;-61
2022/02/23 06:50:45;;;;;;;7.70;3.13;;;;;;;;;;4969312;28;20527;-61
2022/02/23 06:53:12;;;;;;;9.10;3.20;;;;;;;;;;4969535;28;20493;-61
2022/02/23 06:55:38;;;;;;;8.65;3.03;;;;;;;;;;4970164;28;20321;-62
2022/02/23 06:58:04;;;;;;;11.82;3.67;;;;;;;;;;4968424;28;20302;-63
2022/02/23 07:00:29;;;;;;;7.88;3.13;;;;;;;;;;4969507;28;20092;-61
2022/02/23 07:02:54;;;;;;;7.85;3.08;;;;;;;;;;4970548;28;20294;-62
2022/02/23 07:05:20;;;;;;;6.22;2.83;;;;;;;;;;4968893;28;20025;-62
2022/02/23 07:07:47;;;;;;;6.55;2.95;;;;;;;;;;4969066;28;20383;-61
2022/02/23 07:10:28;;;;;;;8.93;3.13;;;;;;;;;;4969565;28;20423;-62
2022/02/23 07:12:54;;;;;;;7.40;3.08;;;;;;;;;;4970827;28;20467;-61
2022/02/23 07:15:21;;;;;;;5.07;2.50;;;;;;;;;;4970249;28;20454;-61
2022/02/23 07:17:47;;;;;;;3.90;2.42;;;;;;;;;;4969029;28;20459;-62
2022/02/23 07:20:14;;;;;;;6.82;2.95;;;;;;;;;;4970013;28;20429;-62
2022/02/23 07:22:39;;;;;;;5.35;2.53;;;;;;;;;;4968947;28;20391;-62
2022/02/23 07:25:07;;;;;;;3.63;2.35;;;;;;;;;;4968518;28;20318;-62
2022/02/23 07:27:33;;;;;;;8.20;2.60;;;;;;;;;;4968992;28;20364;-61
2022/02/23 07:29:58;;;;;;;6.10;2.60;;;;;;;;;;4968895;28;20045;-61
2022/02/23 07:32:28;;;;;;;7.97;2.40;;;;;;;;;;4969626;28;20033;-62
2022/02/23 07:34:54;;;;;;;6.70;2.95;;;;;;;;;;4969121;28;20104;-62
2022/02/23 07:37:20;;;;;;;8.25;3.55;;;;;;;;;;4970383;28;20318;-63
2022/02/23 07:39:46;;;;;;;3.67;2.13;;;;;;;;;;4969298;28;20428;-62
2022/02/23 07:42:11;;;;;;;8.05;2.63;;;;;;;;;;4968927;28;20424;-61
2022/02/23 07:44:36;;;;;;;6.10;2.15;;;;;;;;;;4969141;28;20436;-62
2022/02/23 07:47:02;;;;;;;8.80;2.33;;;;;;;;;;4969473;28;20441;-62
2022/02/23 07:49:28;;;;;;;5.45;2.10;;;;;;;;;;4969944;28;20403;-62
2022/02/23 07:51:53;;;;;;;8.73;2.83;;;;;;;;;;4968408;28;20488;-62
2022/02/23 07:54:19;;;;;;;5.95;2.50;;;;;;;;;;4971055;28;20302;-61
2022/02/23 07:56:44;;;;;;;4.13;2.10;;;;;;;;;;4968623;28;20433;-61
2022/02/23 07:59:09;;;;;;;4.47;2.45;;;;;;;;;;4968551;28;20514;-62
2022/02/23 08:01:40;;;;;;;5.68;2.05;;;;;;;;;;4968730;28;20460;-62
2022/02/23 08:04:06;;;;;;;4.45;2.63;;;;;;;;;;4968675;28;20433;-62
2022/02/23 08:06:32;;;;;;;8.25;2.00;;;;;;;;;;4969984;28;20467;-61
2022/02/23 08:09:02;;;;;;;6.50;2.05;;;;;;;;;;4969334;28;20344;-62
2022/02/23 08:11:29;;;;;;;3.92;2.08;;;;;;;;;;4968990;28;20456;-61
2022/02/23 08:13:58;;;;;;;4.32;1.70;;;;;;;;;;4968939;28;20091;-62
2022/02/23 08:21:56;;;;;;;9.13;2.55;;;;;;;;;;4968969;28;20672;-62
2022/02/23 08:24:22;;;;;;;7.50;2.38;;;;;;;;;;4968469;28;20068;-61
2022/02/23 08:26:47;;;;;;;10.18;2.50;;;;;;;;;;4968722;28;20492;-62
2022/02/23 08:29:13;;;;;;;8.77;3.33;;;;;;;;;;4968495;28;20413;-62
2022/02/23 08:31:38;;;;;;;10.38;3.05;;;;;;;;;;4969151;28;20424;-61
2022/02/23 08:34:03;;;;;;;11.93;3.95;;;;;;;;;;4968541;28;20525;-61
2022/02/23 08:36:29;;;;;;;7.43;3.03;;;;;;;;;;4968786;28;20427;-62
2022/02/23 08:38:54;;;;;;;9.30;3.40;;;;;;;;;;4973209;28;20403;-62
2022/02/23 08:41:20;;;;;;;6.10;3.20;;;;;;;;;;4971898;28;20076;-61
2022/02/23 08:43:45;;;;;;;10.30;3.47;;;;;;;;;;4972764;28;20463;-61
2022/02/23 08:46:10;;;;;;;11.00;4.05;;;;;;;;;;4972142;28;20449;-62
2022/02/23 08:48:36;;;;;;;19.30;3.95;;;;;;;;;;4971834;28;20037;-61
2022/02/23 08:51:01;;;;;;;14.90;4.40;;;;;;;;;;4971257;28;20064;-62
2022/02/23 08:53:28;;;;;;;13.88;3.40;;;;;;;;;;4971748;28;20434;-61
2022/02/23 08:55:54;;;;;;;10.48;3.35;;;;;;;;;;4972867;28;20348;-62
2022/02/23 08:58:19;;;;;;;14.30;3.38;;;;;;;;;;4971611;28;20364;-63
2022/02/23 09:00:46;;;;;;;9.95;2.65;;;;;;;;;;4971504;28;20391;-62
2022/02/23 09:03:12;;;;;;;8.07;2.65;;;;;;;;;;4971243;28;20522;-62
2022/02/23 09:05:37;;;;;;;9.93;2.65;;;;;;;;;;4973209;28;20469;-62
2022/02/23 09:08:03;;;;;;;11.93;3.53;;;;;;;;;;4971425;28;20419;-62
2022/02/23 09:10:28;;;;;;;14.40;3.28;;;;;;;;;;4971487;28;20412;-62
2022/02/23 09:12:54;;;;;;;13.82;3.65;;;;;;;;;;4971646;28;20554;-61
2022/02/23 09:15:19;;;;;;;12.27;3.70;;;;;;;;;;4971584;28;20412;-62
2022/02/23 09:17:45;;;;;;;8.88;3.25;;;;;;;;;;4972037;28;20413;-63
2022/02/23 09:20:11;;;;;;;9.98;3.38;;;;;;;;;;4971783;28;20436;-62
2022/02/23 09:22:37;;;;;;;7.22;2.58;;;;;;;;;;4971541;28;20377;-62
2022/02/23 09:25:03;;;;;;;7.43;3.20;;;;;;;;;;4971120;28;20348;-61
2022/02/23 09:27:28;;;;;;;9.35;2.85;;;;;;;;;;4972488;28;20408;-62
2022/02/23 09:29:54;;;;;;;8.38;2.88;;;;;;;;;;4971533;28;20531;-62
2022/02/23 09:32:20;;;;;;;10.40;3.25;;;;;;;;;;4970654;28;20400;-61
2022/02/23 09:34:45;;;;;;;7.88;2.65;;;;;;;;;;4971338;28;20068;-62
2022/02/23 09:37:10;;;;;;;8.18;2.70;;;;;;;;;;4970810;28;20587;-62
2022/02/23 09:39:36;;;;;;;7.65;2.15;;;;;;;;;;4971336;28;20363;-63
2022/02/23 09:42:01;;;;;;;11.95;3.35;;;;;;;;;;4970771;28;20460;-63
2022/02/23 09:44:27;;;;;;;11.85;2.88;;;;;;;;;;4971743;28;20512;-62
2022/02/23 09:46:52;;;;;;;9.68;2.67;;;;;;;;;;4970338;28;20487;-61
2022/02/23 09:49:19;;;;;;;8.73;2.80;;;;;;;;;;4970364;28;20415;-63
2022/02/23 09:51:46;;;;;;;8.40;2.78;;;;;;;;;;4969824;28;20153;-62
2022/02/23 09:54:12;;;;;;;9.27;3.03;;;;;;;;;;4970641;28;20025;-62
2022/02/23 09:56:39;;;;;;;8.02;2.53;;;;;;;;;;4970599;28;20463;-62
2022/02/23 09:59:05;;;;;;;6.47;3.05;;;;;;;;;;4971511;28;20029;-62
2022/02/23 10:01:32;;;;;;;12.63;2.95;;;;;;;;;;4970467;28;20369;-62
2022/02/23 10:03:58;;;;;;;7.07;2.55;;;;;;;;;;4969965;28;20337;-63
2022/02/23 10:06:28;;;;;;;9.90;3.70;;;;;;;;;;4970294;28;20333;-62
2022/02/23 10:09:08;;;;;;;6.57;3.03;;;;;;;;;;4970273;28;20326;-62
2022/02/23 10:11:35;;;;;;;10.63;2.45;;;;;;;;;;4972168;28;20387;-62
2022/02/23 10:14:02;;;;;;;10.05;2.30;;;;;;;;;;4971385;28;20033;-62
2022/02/23 10:16:40;;;;;;;9.35;2.40;;;;;;;;;;4970686;28;20413;-62
2022/02/23 10:19:07;;;;;;;9.80;2.83;;;;;;;;;;4970146;28;20325;-62
2022/02/23 10:21:56;;;;;;;6.45;2.35;;;;;;;;;;4971369;28;20324;-62
2022/02/23 10:24:32;;;;;;;5.72;3.13;;;;;;;;;;4970284;28;20310;-62
2022/02/23 10:27:03;;;;;;;11.20;2.35;;;;;;;;;;4969739;28;20060;-62
2022/02/23 10:29:45;;;;;;;6.30;2.13;;;;;;;;;;4969958;28;20432;-62
2022/02/23 10:32:12;;;;;;;8.75;2.72;;;;;;;;;;4970542;28;20038;-62
2022/02/23 10:34:46;;;;;;;4.95;2.10;;;;;;;;;;4969912;28;20333;-61
2022/02/23 10:37:14;;;;;;;9.00;2.67;;;;;;;;;;4969833;28;20526;-62
2022/02/23 10:39:41;;;;;;;6.78;2.90;;;;;;;;;;4969789;28;20349;-62
2022/02/23 10:42:12;;;;;;;7.35;2.63;;;;;;;;;;4969680;28;20559;-63
2022/02/23 10:44:45;;;;;;;9.13;3.00;;;;;;;;;;4969751;28;20436;-62
2022/02/23 10:47:32;;;;;;;8.13;2.88;;;;;;;;;;4970239;28;20356;-64
2022/02/23 10:50:15;;;;;;;8.10;2.53;;;;;;;;;;4969616;28;20420;-63
2022/02/23 10:52:43;;;;;;;6.82;2.28;;;;;;;;;;4968567;28;20399;-62
2022/02/23 10:55:13;;;;;;;8.32;2.63;;;;;;;;;;4970372;28;20337;-62
2022/02/23 10:57:46;;;;;;;8.70;2.40;;;;;;;;;;4969501;28;20037;-62
2022/02/23 11:00:16;;;;;;;5.20;2.30;;;;;;;;;;4968920;28;20029;-62
2022/02/23 11:02:42;;;;;;;7.35;2.50;;;;;;;;;;4971449;28;20048;-63
2022/02/23 11:05:07;;;;;;;7.45;3.13;;;;;;;;;;4971006;28;20464;-62
2022/02/23 11:07:32;;;;;;;7.97;2.72;;;;;;;;;;4969448;28;20095;-62
2022/02/23 11:09:58;;;;;;;10.23;2.50;;;;;;;;;;4969140;28;20383;-62
2022/02/23 11:12:24;;;;;;;7.43;2.35;;;;;;;;;;4969774;28;20360;-63
2022/02/23 11:14:49;;;;;;;8.88;2.20;;;;;;;;;;4967769;28;20438;-63
2022/02/23 11:17:15;;;;;;;8.43;2.55;;;;;;;;;;4967980;28;20088;-62
2022/02/23 11:19:41;;;;;;;9.23;2.95;;;;;;;;;;4967614;28;20325;-62
2022/02/23 11:22:07;;;;;;;5.43;2.17;;;;;;;;;;4967395;28;20421;-64
2022/02/23 11:24:33;;;;;;;5.97;2.55;;;;;;;;;;4968024;28;20511;-62
2022/02/23 11:27:04;;;;;;;8.20;2.75;;;;;;;;;;4969388;28;20420;-62
2022/02/23 11:30:05;;;;;;;9.43;2.72;;;;;;;;;;4967815;28;20421;-62
2022/02/23 11:32:39;;;;;;;12.35;3.25;;;;;;;;;;4969028;28;20380;-63
2022/02/23 11:35:07;;;;;;;12.82;3.72;;;;;;;;;;4969114;28;20564;-63
2022/02/23 11:37:33;;;;;;;12.35;3.05;;;;;;;;;;4969998;28;20330;-62
2022/02/23 11:39:59;;;;;;;8.10;3.08;;;;;;;;;;4969022;28;20091;-63
2022/02/23 11:42:25;;;;;;;12.02;3.35;;;;;;;;;;4968933;28;20515;-63
2022/02/23 11:45:05;;;;;;;11.02;2.85;;;;;;;;;;4970054;28;20313;-62
2022/02/23 11:47:31;;;;;;;11.80;2.80;;;;;;;;;;4968774;28;20445;-62
2022/02/23 11:50:03;;;;;;;9.25;3.35;;;;;;;;;;4968559;28;20030;-62
2022/02/23 11:52:29;;;;;;;9.65;2.97;;;;;;;;;;4968906;28;20422;-62
2022/02/23 11:55:18;;;;;;;11.65;3.53;;;;;;;;;;4968728;28;20504;-62
2022/02/23 11:57:56;;;;;;;10.18;3.13;;;;;;;;;;4968846;28;20495;-62
2022/02/23 12:00:24;;;;;;;7.75;3.10;;;;;;;;;;4968768;28;20103;-63
2022/02/23 12:03:11;;;;;;;10.02;3.35;;;;;;;;;;4969471;28;20021;-62
2022/02/23 12:05:41;;;;;;;4.35;1.88;;;;;;;;;;4969034;28;20320;-63
2022/02/23 12:08:27;;;;;;;9.18;2.63;;;;;;;;;;4969874;28;20340;-63
2022/02/23 12:10:52;;;;;;;10.57;2.47;;;;;;;;;;4969720;28;20404;-62
2022/02/23 12:13:42;;;;;;;7.55;3.17;;;;;;;;;;4972417;28;20037;-63
2022/02/23 12:16:35;;;;;;;5.18;2.50;;;;;;;;;;4972432;28;20469;-62
2022/02/23 12:19:04;;;;;;;10.25;2.55;;;;;;;;;;4972171;28;20502;-64
2022/02/23 12:21:53;;;;;;;6.35;2.03;;;;;;;;;;4971744;28;20513;-62
2022/02/23 12:24:20;;;;;;;11.98;2.15;;;;;;;;;;4972725;28;20029;-62
2022/02/23 12:26:48;;;;;;;9.95;3.05;;;;;;;;;;4972222;28;20444;-63
2022/02/23 12:29:16;;;;;;;7.25;2.22;;;;;;;;;;4972315;28;20444;-62
2022/02/23 12:31:44;;;;;;;6.50;2.30;;;;;;;;;;4973994;28;20328;-62
2022/02/23 12:34:14;;;;;;;9.40;2.65;;;;;;;;;;4971474;28;20057;-62
2022/02/23 12:36:41;;;;;;;8.40;3.03;;;;;;;;;;4971927;28;20416;-63
2022/02/23 12:39:12;;;;;;;11.57;2.63;;;;;;;;;;4971931;28;20034;-62
2022/02/23 12:41:37;;;;;;;8.07;2.72;;;;;;;;;;4971971;28;20503;-63
2022/02/23 12:44:15;;;;;;;6.45;2.17;;;;;;;;;;4971733;28;20459;-63
2022/02/23 12:47:04;;;;;;;8.60;2.17;;;;;;;;;;4972035;28;20395;-62
2022/02/23 12:49:30;;;;;;;4.25;1.90;;;;;;;;;;4971726;28;20391;-62
2022/02/23 12:51:56;;;;;;;8.00;2.55;;;;;;;;;;4971186;28;20132;-63
2022/02/23 12:54:27;;;;;;;8.77;2.38;;;;;;;;;;4971802;28;20057;-63
2022/02/23 12:56:58;;;;;;;8.38;2.28;;;;;;;;;;4971901;28;20029;-63
2022/02/23 12:59:31;;;;;;;12.23;2.22;;;;;;;;;;4973430;28;20310;-62
2022/02/23 13:02:02;;;;;;;3.15;1.60;;;;;;;;;;4973053;28;20123;-63
2022/02/23 13:04:38;;;;;;;5.75;2.28;;;;;;;;;;4971398;28;20559;-63
2022/02/23 13:07:11;;;;;;;5.53;1.90;;;;;;;;;;4971457;28;20444;-63
2022/02/23 13:09:42;;;;;;;5.20;2.30;;;;;;;;;;4971043;28;20310;-63
2022/02/23 13:12:09;;;;;;;7.88;2.33;;;;;;;;;;4971226;28;20416;-62
2022/02/23 13:14:36;;;;;;;5.68;1.83;;;;;;;;;;4972494;28;20578;-64
2022/02/23 13:17:05;;;;;;;4.78;2.65;;;;;;;;;;4971993;28;20392;-62
2022/02/23 13:19:33;;;;;;;6.85;2.65;;;;;;;;;;4971141;28;20451;-62
2022/02/23 13:22:01;;;;;;;6.88;2.17;;;;;;;;;;4970669;28;20452;-62
2022/02/23 13:24:36;;;;;;;5.50;2.30;;;;;;;;;;4971286;28;20464;-64
2022/02/23 13:27:07;;;;;;;8.05;2.53;;;;;;;;;;4971010;28;20437;-62
2022/02/23 13:29:33;;;;;;;7.32;3.10;;;;;;;;;;4970788;28;20037;-62
2022/02/23 13:32:02;;;;;;;7.72;2.80;;;;;;;;;;4971908;28;20053;-63
2022/02/23 13:34:30;;;;;;;8.13;2.38;;;;;;;;;;4971423;28;20453;-62
2022/02/23 13:36:59;;;;;;;6.53;2.47;;;;;;;;;;4971841;28;20456;-63
2022/02/23 13:39:27;;;;;;;12.77;3.60;;;;;;;;;;4971736;28;20424;-63
2022/02/23 13:41:55;;;;;;;4.63;2.03;;;;;;;;;;4971151;28;20116;-63
2022/02/23 13:44:34;;;;;;;4.82;2.13;;;;;;;;;;4972079;28;20325;-64
2022/02/23 13:47:07;;;;;;;10.48;2.67;;;;;;;;;;4971523;28;20337;-63
2022/02/23 13:49:35;;;;;;;6.80;2.10;;;;;;;;;;4970787;28;20495;-64
2022/02/23 13:52:03;;;;;;;7.35;2.42;;;;;;;;;;4970035;28;20041;-63
2022/02/23 13:54:28;;;;;;;5.25;2.33;;;;;;;;;;4970261;28;20440;-63
2022/02/23 13:56:55;;;;;;;6.43;2.28;;;;;;;;;;4969115;28;20349;-63
2022/02/23 13:59:22;;;;;;;5.90;1.80;;;;;;;;;;4970356;28;20238;-63
2022/02/23 14:01:57;;;;;;;7.20;2.53;;;;;;;;;;4970296;28;20441;-63
2022/02/23 14:04:22;;;;;;;6.85;2.35;;;;;;;;;;4970593;28;20429;-63
2022/02/23 14:06:48;;;;;;;4.78;2.13;;;;;;;;;;4971435;28;21459;-63
2022/02/23 14:09:13;;;;;;;10.02;2.33;;;;;;;;;;4971592;28;20061;-62
2022/02/23 14:11:43;;;;;;;8.82;3.65;;;;;;;;;;4970109;28;20121;-63
2022/02/23 14:14:17;;;;;;;7.30;2.85;;;;;;;;;;4970483;28;20372;-63
2022/02/23 14:16:45;;;;;;;6.43;2.60;;;;;;;;;;4970300;28;20371;-64
2022/02/23 14:19:19;;;;;;;4.57;2.33;;;;;;;;;;4970063;28;20303;-63
2022/02/23 14:21:46;;;;;;;5.45;1.98;;;;;;;;;;4969880;28;20468;-63
2022/02/23 14:24:16;;;;;;;4.57;1.90;;;;;;;;;;4969958;28;20460;-63
2022/02/23 14:26:47;;;;;;;;;;;;;;;;;;4970340;28;20029;-62
2022/02/23 14:29:13;;;;;;;7.95;2.00;;;;;;;;;;4968044;28;20312;-63
2022/02/23 14:31:45;;;;;;;11.73;2.58;;;;;;;;;;4971317;28;20327;-63
2022/02/23 14:34:25;;;;;;;7.03;2.38;;;;;;;;;;4968712;28;20321;-63
2022/02/23 14:36:53;;;;;;;6.53;1.80;;;;;;;;;;4968202;28;20440;-63
2022/02/23 14:39:20;;;;;;;6.88;2.28;;;;;;;;;;4969560;28;20462;-64
2022/02/23 14:41:45;;;;;;;6.90;2.45;;;;;;;;;;4969808;28;20428;-63
2022/02/23 14:44:11;;;;;;;11.15;3.03;;;;;;;;;;4969879;28;20112;-64